sensor_id;sensor_type;location;lat;lon;timestamp;P1;durP1;ratioP1;P2;durP2;ratioP2
76900;SDS011;65859;43.020;25.096;2023-11-21T00:01:15;28.60;;;13.68;;
76900;SDS011;65859;43.020;25.096;2023-11-21T00:04:00;26.38;;;14.63;;
76900;SDS011;65859;43.020;25.096;2023-11-21T00:06:45;27.15;;;17.42;;
76900;SDS011;65859;43.020;25.096;2023-11-21T00:09:30;39.80;;;21.65;;
76900;SDS011;65859;43.020;25.096;2023-11-21T00:12:16;21.95;;;13.48;;
76900;SDS011;65859;43.020;25.096;2023-11-21T00:15:01;34.63;;;18.40;;
76900;SDS011;65859;43.020;25.096;2023-11-21T00:17:49;27.80;;;14.68;;
76900;SDS011;65859;43.020;25.096;2023-11-21T00:20:35;20.60;;;11.93;;
76900;SDS011;65859;43.020;25.096;2023-11-21T00:23:19;20.35;;;11.25;;
76900;SDS011;65859;43.020;25.096;2023-11-21T00:26:04;19.63;;;11.70;;
76900;SDS011;65859;43.020;25.096;2023-11-21T00:28:49;19.08;;;11.73;;
76900;SDS011;65859;43.020;25.096;2023-11-21T00:31:34;19.77;;;11.80;;
76900;SDS011;65859;43.020;25.096;2023-11-21T00:34:22;20.40;;;11.90;;
76900;SDS011;65859;43.020;25.096;2023-11-21T00:37:07;13.60;;;8.25;;
76900;SDS011;65859;43.020;25.096;2023-11-21T00:39:52;12.32;;;8.00;;
76900;SDS011;65859;43.020;25.096;2023-11-21T00:42:37;10.88;;;7.30;;
76900;SDS011;65859;43.020;25.096;2023-11-21T00:45:21;11.77;;;7.47;;
76900;SDS011;65859;43.020;25.096;2023-11-21T00:48:06;26.30;;;12.60;;
76900;SDS011;65859;43.020;25.096;2023-11-21T00:50:53;16.80;;;10.05;;
76900;SDS011;65859;43.020;25.096;2023-11-21T00:53:39;14.30;;;9.30;;
76900;SDS011;65859;43.020;25.096;2023-11-21T00:56:24;11.57;;;7.32;;
76900;SDS011;65859;43.020;25.096;2023-11-21T00:59:09;13.05;;;7.75;;
76900;SDS011;65859;43.020;25.096;2023-11-21T01:01:54;12.65;;;8.18;;
76900;SDS011;65859;43.020;25.096;2023-11-21T01:04:39;10.07;;;6.30;;
76900;SDS011;65859;43.020;25.096;2023-11-21T01:07:24;11.48;;;7.38;;
76900;SDS011;65859;43.020;25.096;2023-11-21T01:10:09;12.10;;;7.07;;
76900;SDS011;65859;43.020;25.096;2023-11-21T01:12:54;12.57;;;7.40;;
76900;SDS011;65859;43.020;25.096;2023-11-21T01:15:38;10.00;;;6.57;;
76900;SDS011;65859;43.020;25.096;2023-11-21T01:18:23;11.13;;;7.55;;
76900;SDS011;65859;43.020;25.096;2023-11-21T01:21:14;12.40;;;7.72;;
76900;SDS011;65859;43.020;25.096;2023-11-21T01:23:59;10.32;;;7.38;;
76900;SDS011;65859;43.020;25.096;2023-11-21T01:26:44;11.57;;;8.45;;
76900;SDS011;65859;43.020;25.096;2023-11-21T01:29:30;12.35;;;7.72;;
76900;SDS011;65859;43.020;25.096;2023-11-21T01:32:14;12.52;;;7.95;;
76900;SDS011;65859;43.020;25.096;2023-11-21T01:34:59;11.05;;;8.25;;
76900;SDS011;65859;43.020;25.096;2023-11-21T01:37:44;11.93;;;8.38;;
76900;SDS011;65859;43.020;25.096;2023-11-21T01:40:29;20.63;;;11.68;;
76900;SDS011;65859;43.020;25.096;2023-11-21T01:43:14;22.00;;;10.18;;
76900;SDS011;65859;43.020;25.096;2023-11-21T01:45:59;18.33;;;9.80;;
76900;SDS011;65859;43.020;25.096;2023-11-21T01:48:44;16.17;;;9.88;;
76900;SDS011;65859;43.020;25.096;2023-11-21T01:51:31;13.95;;;9.15;;
76900;SDS011;65859;43.020;25.096;2023-11-21T01:54:16;12.15;;;8.30;;
76900;SDS011;65859;43.020;25.096;2023-11-21T01:57:02;14.43;;;8.80;;
76900;SDS011;65859;43.020;25.096;2023-11-21T01:59:49;13.00;;;8.80;;
76900;SDS011;65859;43.020;25.096;2023-11-21T02:02:37;12.02;;;8.68;;
76900;SDS011;65859;43.020;25.096;2023-11-21T02:05:22;11.77;;;7.90;;
76900;SDS011;65859;43.020;25.096;2023-11-21T02:08:07;13.52;;;7.60;;
76900;SDS011;65859;43.020;25.096;2023-11-21T02:10:53;10.52;;;7.72;;
76900;SDS011;65859;43.020;25.096;2023-11-21T02:13:37;11.80;;;7.32;;
76900;SDS011;65859;43.020;25.096;2023-11-21T02:16:26;12.05;;;7.32;;
76900;SDS011;65859;43.020;25.096;2023-11-21T02:19:16;10.45;;;6.78;;
76900;SDS011;65859;43.020;25.096;2023-11-21T02:22:14;10.80;;;7.53;;
76900;SDS011;65859;43.020;25.096;2023-11-21T02:25:00;14.18;;;7.45;;
76900;SDS011;65859;43.020;25.096;2023-11-21T02:27:44;11.63;;;7.60;;
76900;SDS011;65859;43.020;25.096;2023-11-21T02:30:31;13.05;;;7.88;;
76900;SDS011;65859;43.020;25.096;2023-11-21T02:33:16;14.10;;;8.10;;
76900;SDS011;65859;43.020;25.096;2023-11-21T02:36:02;12.68;;;7.60;;
76900;SDS011;65859;43.020;25.096;2023-11-21T02:38:48;22.48;;;11.80;;
76900;SDS011;65859;43.020;25.096;2023-11-21T02:41:32;14.45;;;8.07;;
76900;SDS011;65859;43.020;25.096;2023-11-21T02:44:18;10.57;;;7.18;;
76900;SDS011;65859;43.020;25.096;2023-11-21T02:47:03;11.98;;;7.28;;
76900;SDS011;65859;43.020;25.096;2023-11-21T02:49:48;13.60;;;8.70;;
76900;SDS011;65859;43.020;25.096;2023-11-21T02:52:37;12.90;;;7.15;;
76900;SDS011;65859;43.020;25.096;2023-11-21T02:55:23;10.75;;;7.20;;
76900;SDS011;65859;43.020;25.096;2023-11-21T02:58:08;11.77;;;6.88;;
76900;SDS011;65859;43.020;25.096;2023-11-21T03:00:53;12.15;;;7.55;;
76900;SDS011;65859;43.020;25.096;2023-11-21T03:03:38;14.32;;;7.50;;
76900;SDS011;65859;43.020;25.096;2023-11-21T03:06:24;14.43;;;7.65;;
76900;SDS011;65859;43.020;25.096;2023-11-21T03:09:08;19.60;;;8.63;;
76900;SDS011;65859;43.020;25.096;2023-11-21T03:11:53;18.95;;;8.68;;
76900;SDS011;65859;43.020;25.096;2023-11-21T03:14:39;14.73;;;8.48;;
76900;SDS011;65859;43.020;25.096;2023-11-21T03:17:24;17.20;;;8.75;;
76900;SDS011;65859;43.020;25.096;2023-11-21T03:20:08;17.23;;;8.90;;
76900;SDS011;65859;43.020;25.096;2023-11-21T03:22:55;21.20;;;11.20;;
76900;SDS011;65859;43.020;25.096;2023-11-21T03:25:40;20.10;;;11.20;;
76900;SDS011;65859;43.020;25.096;2023-11-21T03:28:25;15.57;;;9.45;;
76900;SDS011;65859;43.020;25.096;2023-11-21T03:31:14;18.15;;;9.07;;
76900;SDS011;65859;43.020;25.096;2023-11-21T03:34:01;16.10;;;7.20;;
76900;SDS011;65859;43.020;25.096;2023-11-21T03:36:46;10.60;;;6.93;;
76900;SDS011;65859;43.020;25.096;2023-11-21T03:39:31;16.15;;;7.90;;
76900;SDS011;65859;43.020;25.096;2023-11-21T03:42:15;11.43;;;6.93;;
76900;SDS011;65859;43.020;25.096;2023-11-21T03:45:00;12.68;;;6.93;;
76900;SDS011;65859;43.020;25.096;2023-11-21T03:47:47;13.68;;;7.88;;
76900;SDS011;65859;43.020;25.096;2023-11-21T03:50:32;12.32;;;6.60;;
76900;SDS011;65859;43.020;25.096;2023-11-21T03:53:18;10.15;;;6.28;;
76900;SDS011;65859;43.020;25.096;2023-11-21T03:56:03;10.55;;;6.55;;
76900;SDS011;65859;43.020;25.096;2023-11-21T03:58:49;10.88;;;6.00;;
76900;SDS011;65859;43.020;25.096;2023-11-21T04:01:34;13.10;;;6.53;;
76900;SDS011;65859;43.020;25.096;2023-11-21T04:04:18;9.93;;;6.18;;
76900;SDS011;65859;43.020;25.096;2023-11-21T04:07:06;12.82;;;6.72;;
76900;SDS011;65859;43.020;25.096;2023-11-21T04:09:50;12.60;;;6.72;;
76900;SDS011;65859;43.020;25.096;2023-11-21T04:12:35;11.98;;;6.97;;
76900;SDS011;65859;43.020;25.096;2023-11-21T04:15:20;19.55;;;9.35;;
76900;SDS011;65859;43.020;25.096;2023-11-21T04:18:05;15.23;;;9.82;;
76900;SDS011;65859;43.020;25.096;2023-11-21T04:20:50;13.15;;;7.68;;
76900;SDS011;65859;43.020;25.096;2023-11-21T04:23:36;25.40;;;13.73;;
76900;SDS011;65859;43.020;25.096;2023-11-21T04:26:20;18.30;;;9.85;;
76900;SDS011;65859;43.020;25.096;2023-11-21T04:29:05;17.40;;;10.70;;
76900;SDS011;65859;43.020;25.096;2023-11-21T04:31:49;12.68;;;7.85;;
76900;SDS011;65859;43.020;25.096;2023-11-21T04:34:34;9.55;;;5.38;;
76900;SDS011;65859;43.020;25.096;2023-11-21T04:37:18;9.50;;;5.22;;
76900;SDS011;65859;43.020;25.096;2023-11-21T04:40:03;11.73;;;6.13;;
76900;SDS011;65859;43.020;25.096;2023-11-21T04:42:50;18.27;;;10.82;;
76900;SDS011;65859;43.020;25.096;2023-11-21T04:45:35;16.98;;;9.85;;
76900;SDS011;65859;43.020;25.096;2023-11-21T04:48:20;65.95;;;26.42;;
76900;SDS011;65859;43.020;25.096;2023-11-21T04:51:05;81.53;;;35.58;;
76900;SDS011;65859;43.020;25.096;2023-11-21T04:53:51;55.00;;;30.00;;
76900;SDS011;65859;43.020;25.096;2023-11-21T04:56:36;28.73;;;17.58;;
76900;SDS011;65859;43.020;25.096;2023-11-21T04:59:20;31.50;;;17.65;;
76900;SDS011;65859;43.020;25.096;2023-11-21T05:02:08;32.03;;;16.42;;
76900;SDS011;65859;43.020;25.096;2023-11-21T05:04:53;35.55;;;21.65;;
76900;SDS011;65859;43.020;25.096;2023-11-21T05:07:39;25.02;;;15.02;;
76900;SDS011;65859;43.020;25.096;2023-11-21T05:10:25;13.73;;;9.23;;
76900;SDS011;65859;43.020;25.096;2023-11-21T05:13:09;11.00;;;7.78;;
76900;SDS011;65859;43.020;25.096;2023-11-21T05:15:54;15.30;;;9.30;;
76900;SDS011;65859;43.020;25.096;2023-11-21T05:18:42;10.25;;;7.97;;
76900;SDS011;65859;43.020;25.096;2023-11-21T05:21:27;10.35;;;6.53;;
76900;SDS011;65859;43.020;25.096;2023-11-21T05:24:17;17.05;;;9.07;;
76900;SDS011;65859;43.020;25.096;2023-11-21T05:27:02;21.27;;;13.70;;
76900;SDS011;65859;43.020;25.096;2023-11-21T05:29:47;33.38;;;17.05;;
76900;SDS011;65859;43.020;25.096;2023-11-21T05:32:34;37.63;;;21.65;;
76900;SDS011;65859;43.020;25.096;2023-11-21T05:35:19;46.35;;;28.13;;
76900;SDS011;65859;43.020;25.096;2023-11-21T05:38:04;39.83;;;21.27;;
76900;SDS011;65859;43.020;25.096;2023-11-21T05:40:49;29.52;;;17.40;;
76900;SDS011;65859;43.020;25.096;2023-11-21T05:43:34;27.50;;;16.42;;
76900;SDS011;65859;43.020;25.096;2023-11-21T05:46:19;22.25;;;13.15;;
76900;SDS011;65859;43.020;25.096;2023-11-21T05:49:06;20.25;;;11.35;;
76900;SDS011;65859;43.020;25.096;2023-11-21T05:51:53;19.63;;;11.55;;
76900;SDS011;65859;43.020;25.096;2023-11-21T05:54:39;21.17;;;10.68;;
76900;SDS011;65859;43.020;25.096;2023-11-21T05:57:25;214.27;;;92.03;;
76900;SDS011;65859;43.020;25.096;2023-11-21T06:00:10;95.65;;;45.63;;
76900;SDS011;65859;43.020;25.096;2023-11-21T06:03:03;57.42;;;34.83;;
76900;SDS011;65859;43.020;25.096;2023-11-21T06:05:50;17.10;;;10.63;;
76900;SDS011;65859;43.020;25.096;2023-11-21T06:08:34;25.80;;;16.25;;
76900;SDS011;65859;43.020;25.096;2023-11-21T06:11:19;24.40;;;14.85;;
76900;SDS011;65859;43.020;25.096;2023-11-21T06:14:04;36.42;;;25.17;;
76900;SDS011;65859;43.020;25.096;2023-11-21T06:16:51;41.15;;;31.33;;
76900;SDS011;65859;43.020;25.096;2023-11-21T06:19:36;15.00;;;9.30;;
76900;SDS011;65859;43.020;25.096;2023-11-21T06:22:21;20.20;;;13.02;;
76900;SDS011;65859;43.020;25.096;2023-11-21T06:25:07;12.65;;;8.20;;
76900;SDS011;65859;43.020;25.096;2023-11-21T06:27:53;11.55;;;9.27;;
76900;SDS011;65859;43.020;25.096;2023-11-21T06:30:37;23.85;;;11.77;;
76900;SDS011;65859;43.020;25.096;2023-11-21T06:33:22;24.00;;;11.80;;
76900;SDS011;65859;43.020;25.096;2023-11-21T06:36:07;16.90;;;10.77;;
76900;SDS011;65859;43.020;25.096;2023-11-21T06:38:55;33.00;;;15.65;;
76900;SDS011;65859;43.020;25.096;2023-11-21T06:41:39;22.88;;;11.10;;
76900;SDS011;65859;43.020;25.096;2023-11-21T06:44:24;22.73;;;8.15;;
76900;SDS011;65859;43.020;25.096;2023-11-21T06:47:09;12.20;;;7.50;;
76900;SDS011;65859;43.020;25.096;2023-11-21T06:49:54;13.40;;;6.22;;
76900;SDS011;65859;43.020;25.096;2023-11-21T06:52:42;11.57;;;6.55;;
76900;SDS011;65859;43.020;25.096;2023-11-21T06:55:28;8.82;;;6.20;;
76900;SDS011;65859;43.020;25.096;2023-11-21T06:58:14;17.55;;;8.90;;
76900;SDS011;65859;43.020;25.096;2023-11-21T07:00:59;18.40;;;10.05;;
76900;SDS011;65859;43.020;25.096;2023-11-21T07:03:44;17.83;;;9.73;;
76900;SDS011;65859;43.020;25.096;2023-11-21T07:06:29;15.15;;;9.55;;
76900;SDS011;65859;43.020;25.096;2023-11-21T07:09:13;19.27;;;10.07;;
76900;SDS011;65859;43.020;25.096;2023-11-21T07:11:59;19.58;;;11.13;;
76900;SDS011;65859;43.020;25.096;2023-11-21T07:14:45;15.25;;;9.35;;
76900;SDS011;65859;43.020;25.096;2023-11-21T07:17:30;15.85;;;9.15;;
76900;SDS011;65859;43.020;25.096;2023-11-21T07:20:15;12.75;;;8.73;;
76900;SDS011;65859;43.020;25.096;2023-11-21T07:23:00;11.70;;;8.35;;
76900;SDS011;65859;43.020;25.096;2023-11-21T07:25:46;14.13;;;8.30;;
76900;SDS011;65859;43.020;25.096;2023-11-21T07:28:31;14.52;;;9.32;;
76900;SDS011;65859;43.020;25.096;2023-11-21T07:31:16;17.48;;;11.75;;
76900;SDS011;65859;43.020;25.096;2023-11-21T07:34:00;18.80;;;11.88;;
76900;SDS011;65859;43.020;25.096;2023-11-21T07:36:45;19.15;;;10.38;;
76900;SDS011;65859;43.020;25.096;2023-11-21T07:39:30;11.93;;;8.18;;
76900;SDS011;65859;43.020;25.096;2023-11-21T07:42:15;12.38;;;7.60;;
76900;SDS011;65859;43.020;25.096;2023-11-21T07:45:00;8.90;;;5.82;;
76900;SDS011;65859;43.020;25.096;2023-11-21T07:47:46;10.90;;;6.40;;
76900;SDS011;65859;43.020;25.096;2023-11-21T07:50:30;14.05;;;7.45;;
76900;SDS011;65859;43.020;25.096;2023-11-21T07:53:16;21.88;;;12.65;;
76900;SDS011;65859;43.020;25.096;2023-11-21T07:56:03;24.13;;;14.57;;
76900;SDS011;65859;43.020;25.096;2023-11-21T07:58:49;39.42;;;15.38;;
76900;SDS011;65859;43.020;25.096;2023-11-21T08:01:33;31.73;;;16.20;;
76900;SDS011;65859;43.020;25.096;2023-11-21T08:04:18;34.17;;;15.70;;
76900;SDS011;65859;43.020;25.096;2023-11-21T08:07:03;46.72;;;19.38;;
76900;SDS011;65859;43.020;25.096;2023-11-21T08:09:47;22.95;;;13.20;;
76900;SDS011;65859;43.020;25.096;2023-11-21T08:12:33;22.23;;;14.43;;
76900;SDS011;65859;43.020;25.096;2023-11-21T08:15:18;26.40;;;14.77;;
76900;SDS011;65859;43.020;25.096;2023-11-21T08:18:03;29.40;;;16.27;;
76900;SDS011;65859;43.020;25.096;2023-11-21T08:20:48;44.60;;;23.33;;
76900;SDS011;65859;43.020;25.096;2023-11-21T08:23:33;39.05;;;23.67;;
76900;SDS011;65859;43.020;25.096;2023-11-21T08:26:20;37.58;;;23.52;;
76900;SDS011;65859;43.020;25.096;2023-11-21T08:29:05;40.67;;;24.92;;
76900;SDS011;65859;43.020;25.096;2023-11-21T08:31:53;38.75;;;21.40;;
76900;SDS011;65859;43.020;25.096;2023-11-21T08:34:38;33.40;;;20.75;;
76900;SDS011;65859;43.020;25.096;2023-11-21T08:37:23;31.40;;;18.67;;
76900;SDS011;65859;43.020;25.096;2023-11-21T08:40:10;24.45;;;15.48;;
76900;SDS011;65859;43.020;25.096;2023-11-21T08:43:00;29.98;;;14.82;;
76900;SDS011;65859;43.020;25.096;2023-11-21T08:45:48;26.52;;;15.30;;
76900;SDS011;65859;43.020;25.096;2023-11-21T08:48:32;24.70;;;14.77;;
76900;SDS011;65859;43.020;25.096;2023-11-21T08:51:19;24.13;;;12.50;;
76900;SDS011;65859;43.020;25.096;2023-11-21T08:54:04;20.05;;;11.85;;
76900;SDS011;65859;43.020;25.096;2023-11-21T08:56:53;13.55;;;8.63;;
76900;SDS011;65859;43.020;25.096;2023-11-21T08:59:38;17.20;;;9.90;;
76900;SDS011;65859;43.020;25.096;2023-11-21T09:02:23;13.80;;;8.82;;
76900;SDS011;65859;43.020;25.096;2023-11-21T09:05:11;18.13;;;9.30;;
76900;SDS011;65859;43.020;25.096;2023-11-21T09:07:56;21.95;;;11.75;;
76900;SDS011;65859;43.020;25.096;2023-11-21T09:10:41;21.42;;;13.25;;
76900;SDS011;65859;43.020;25.096;2023-11-21T09:13:28;24.15;;;12.38;;
76900;SDS011;65859;43.020;25.096;2023-11-21T09:16:14;25.30;;;10.85;;
76900;SDS011;65859;43.020;25.096;2023-11-21T09:18:59;26.33;;;13.77;;
76900;SDS011;65859;43.020;25.096;2023-11-21T09:21:44;23.73;;;14.38;;
76900;SDS011;65859;43.020;25.096;2023-11-21T09:24:28;30.58;;;20.27;;
76900;SDS011;65859;43.020;25.096;2023-11-21T09:27:15;18.10;;;11.95;;
76900;SDS011;65859;43.020;25.096;2023-11-21T09:30:01;18.00;;;10.88;;
76900;SDS011;65859;43.020;25.096;2023-11-21T09:32:49;23.88;;;14.77;;
76900;SDS011;65859;43.020;25.096;2023-11-21T09:35:34;21.98;;;14.48;;
76900;SDS011;65859;43.020;25.096;2023-11-21T09:38:18;19.33;;;14.52;;
76900;SDS011;65859;43.020;25.096;2023-11-21T09:41:03;18.20;;;13.18;;
76900;SDS011;65859;43.020;25.096;2023-11-21T09:43:55;22.98;;;12.95;;
76900;SDS011;65859;43.020;25.096;2023-11-21T09:46:44;18.10;;;11.88;;
76900;SDS011;65859;43.020;25.096;2023-11-21T09:49:33;23.33;;;13.45;;
76900;SDS011;65859;43.020;25.096;2023-11-21T09:52:26;19.25;;;11.80;;
76900;SDS011;65859;43.020;25.096;2023-11-21T09:55:12;16.05;;;10.13;;
76900;SDS011;65859;43.020;25.096;2023-11-21T09:58:02;24.40;;;14.40;;
76900;SDS011;65859;43.020;25.096;2023-11-21T10:00:55;24.17;;;15.30;;
76900;SDS011;65859;43.020;25.096;2023-11-21T10:03:43;19.95;;;13.80;;
76900;SDS011;65859;43.020;25.096;2023-11-21T10:06:28;18.77;;;12.15;;
76900;SDS011;65859;43.020;25.096;2023-11-21T10:09:14;13.57;;;9.48;;
76900;SDS011;65859;43.020;25.096;2023-11-21T10:12:00;18.50;;;9.18;;
76900;SDS011;65859;43.020;25.096;2023-11-21T10:14:48;12.32;;;7.80;;
76900;SDS011;65859;43.020;25.096;2023-11-21T10:17:36;15.32;;;9.15;;
76900;SDS011;65859;43.020;25.096;2023-11-21T10:20:26;12.80;;;9.52;;
76900;SDS011;65859;43.020;25.096;2023-11-21T10:23:12;15.38;;;9.63;;
76900;SDS011;65859;43.020;25.096;2023-11-21T10:25:59;17.60;;;9.00;;
76900;SDS011;65859;43.020;25.096;2023-11-21T10:29:02;15.52;;;9.75;;
76900;SDS011;65859;43.020;25.096;2023-11-21T10:31:49;14.77;;;8.18;;
76900;SDS011;65859;43.020;25.096;2023-11-21T10:34:34;16.70;;;7.90;;
76900;SDS011;65859;43.020;25.096;2023-11-21T10:37:19;12.70;;;6.57;;
76900;SDS011;65859;43.020;25.096;2023-11-21T10:40:04;9.65;;;6.00;;
76900;SDS011;65859;43.020;25.096;2023-11-21T10:42:55;13.15;;;6.55;;
76900;SDS011;65859;43.020;25.096;2023-11-21T10:45:52;13.40;;;7.38;;
76900;SDS011;65859;43.020;25.096;2023-11-21T10:48:41;14.48;;;7.25;;
76900;SDS011;65859;43.020;25.096;2023-11-21T10:51:26;14.35;;;7.78;;
76900;SDS011;65859;43.020;25.096;2023-11-21T10:54:12;12.85;;;6.95;;
76900;SDS011;65859;43.020;25.096;2023-11-21T10:56:57;14.20;;;7.43;;
76900;SDS011;65859;43.020;25.096;2023-11-21T10:59:46;14.88;;;8.13;;
76900;SDS011;65859;43.020;25.096;2023-11-21T11:02:32;18.98;;;8.40;;
76900;SDS011;65859;43.020;25.096;2023-11-21T11:05:19;19.15;;;9.55;;
76900;SDS011;65859;43.020;25.096;2023-11-21T11:08:05;17.75;;;9.40;;
76900;SDS011;65859;43.020;25.096;2023-11-21T11:10:52;16.27;;;9.30;;
76900;SDS011;65859;43.020;25.096;2023-11-21T11:13:37;22.15;;;11.80;;
76900;SDS011;65859;43.020;25.096;2023-11-21T11:16:26;9.40;;;5.53;;
76900;SDS011;65859;43.020;25.096;2023-11-21T11:19:12;12.65;;;6.38;;
76900;SDS011;65859;43.020;25.096;2023-11-21T11:27:52;14.00;;;7.53;;
76900;SDS011;65859;43.020;25.096;2023-11-21T11:36:59;9.65;;;6.38;;
76900;SDS011;65859;43.020;25.096;2023-11-21T11:39:54;8.07;;;6.10;;
76900;SDS011;65859;43.020;25.096;2023-11-21T11:42:54;11.48;;;5.90;;
76900;SDS011;65859;43.020;25.096;2023-11-21T11:45:46;8.73;;;5.55;;
76900;SDS011;65859;43.020;25.096;2023-11-21T11:48:39;9.60;;;5.13;;
76900;SDS011;65859;43.020;25.096;2023-11-21T11:51:24;8.85;;;5.07;;
76900;SDS011;65859;43.020;25.096;2023-11-21T11:54:09;10.70;;;5.22;;
76900;SDS011;65859;43.020;25.096;2023-11-21T11:56:54;11.40;;;4.78;;
76900;SDS011;65859;43.020;25.096;2023-11-21T12:00:06;8.80;;;4.90;;
76900;SDS011;65859;43.020;25.096;2023-11-21T12:03:06;11.13;;;5.65;;
76900;SDS011;65859;43.020;25.096;2023-11-21T12:05:52;10.70;;;6.88;;
76900;SDS011;65859;43.020;25.096;2023-11-21T12:08:42;7.95;;;5.57;;
76900;SDS011;65859;43.020;25.096;2023-11-21T12:11:30;10.27;;;5.53;;
76900;SDS011;65859;43.020;25.096;2023-11-21T12:14:16;10.40;;;5.60;;
76900;SDS011;65859;43.020;25.096;2023-11-21T12:17:01;9.90;;;5.68;;
76900;SDS011;65859;43.020;25.096;2023-11-21T12:19:48;31.00;;;12.93;;
76900;SDS011;65859;43.020;25.096;2023-11-21T12:22:36;36.38;;;13.93;;
76900;SDS011;65859;43.020;25.096;2023-11-21T12:25:25;31.08;;;13.10;;
76900;SDS011;65859;43.020;25.096;2023-11-21T12:28:17;28.08;;;12.68;;
76900;SDS011;65859;43.020;25.096;2023-11-21T12:31:02;27.23;;;11.75;;
76900;SDS011;65859;43.020;25.096;2023-11-21T12:33:49;19.65;;;8.27;;
76900;SDS011;65859;43.020;25.096;2023-11-21T12:36:34;18.52;;;8.02;;
76900;SDS011;65859;43.020;25.096;2023-11-21T12:39:20;16.20;;;6.35;;
76900;SDS011;65859;43.020;25.096;2023-11-21T12:42:06;24.00;;;10.07;;
76900;SDS011;65859;43.020;25.096;2023-11-21T12:48:04;36.38;;;14.60;;
76900;SDS011;65859;43.020;25.096;2023-11-21T12:50:54;26.88;;;13.80;;
76900;SDS011;65859;43.020;25.096;2023-11-21T12:53:40;40.92;;;16.80;;
76900;SDS011;65859;43.020;25.096;2023-11-21T12:56:26;29.90;;;14.02;;
76900;SDS011;65859;43.020;25.096;2023-11-21T12:59:11;42.03;;;18.40;;
76900;SDS011;65859;43.020;25.096;2023-11-21T13:01:58;47.33;;;17.65;;
76900;SDS011;65859;43.020;25.096;2023-11-21T13:04:52;23.55;;;9.35;;
76900;SDS011;65859;43.020;25.096;2023-11-21T13:07:44;21.98;;;8.93;;
76900;SDS011;65859;43.020;25.096;2023-11-21T13:10:31;21.95;;;9.05;;
76900;SDS011;65859;43.020;25.096;2023-11-21T13:13:19;38.47;;;15.15;;
76900;SDS011;65859;43.020;25.096;2023-11-21T13:16:05;77.93;;;31.42;;
76900;SDS011;65859;43.020;25.096;2023-11-21T13:18:51;111.28;;;43.35;;
76900;SDS011;65859;43.020;25.096;2023-11-21T13:21:36;116.30;;;43.28;;
76900;SDS011;65859;43.020;25.096;2023-11-21T13:24:23;113.55;;;42.83;;
76900;SDS011;65859;43.020;25.096;2023-11-21T13:27:10;116.07;;;40.75;;
76900;SDS011;65859;43.020;25.096;2023-11-21T13:29:54;146.75;;;48.35;;
76900;SDS011;65859;43.020;25.096;2023-11-21T13:32:39;119.20;;;39.08;;
76900;SDS011;65859;43.020;25.096;2023-11-21T13:35:26;63.47;;;24.48;;
76900;SDS011;65859;43.020;25.096;2023-11-21T13:38:16;45.75;;;17.90;;
76900;SDS011;65859;43.020;25.096;2023-11-21T13:41:02;28.15;;;10.48;;
76900;SDS011;65859;43.020;25.096;2023-11-21T13:43:51;17.95;;;7.88;;
76900;SDS011;65859;43.020;25.096;2023-11-21T13:46:42;9.75;;;5.07;;
76900;SDS011;65859;43.020;25.096;2023-11-21T13:49:29;10.70;;;5.53;;
76900;SDS011;65859;43.020;25.096;2023-11-21T13:52:19;23.52;;;16.55;;
76900;SDS011;65859;43.020;25.096;2023-11-21T13:55:06;33.63;;;30.02;;
76900;SDS011;65859;43.020;25.096;2023-11-21T13:57:58;9.10;;;6.55;;
76900;SDS011;65859;43.020;25.096;2023-11-21T14:00:43;11.75;;;5.80;;
76900;SDS011;65859;43.020;25.096;2023-11-21T14:03:29;13.23;;;7.82;;
76900;SDS011;65859;43.020;25.096;2023-11-21T14:06:35;36.25;;;22.48;;
76900;SDS011;65859;43.020;25.096;2023-11-21T14:09:31;54.55;;;28.48;;
76900;SDS011;65859;43.020;25.096;2023-11-21T14:12:27;96.68;;;45.28;;
76900;SDS011;65859;43.020;25.096;2023-11-21T14:15:12;57.38;;;31.75;;
76900;SDS011;65859;43.020;25.096;2023-11-21T14:18:00;82.97;;;40.28;;
76900;SDS011;65859;43.020;25.096;2023-11-21T14:20:49;70.10;;;37.80;;
76900;SDS011;65859;43.020;25.096;2023-11-21T14:23:34;84.90;;;46.58;;
76900;SDS011;65859;43.020;25.096;2023-11-21T14:26:20;69.97;;;37.20;;
76900;SDS011;65859;43.020;25.096;2023-11-21T14:29:08;73.07;;;40.38;;
76900;SDS011;65859;43.020;25.096;2023-11-21T14:31:55;70.95;;;39.53;;
76900;SDS011;65859;43.020;25.096;2023-11-21T14:34:41;46.95;;;27.15;;
76900;SDS011;65859;43.020;25.096;2023-11-21T14:37:31;57.13;;;36.72;;
76900;SDS011;65859;43.020;25.096;2023-11-21T14:40:16;127.45;;;59.83;;
76900;SDS011;65859;43.020;25.096;2023-11-21T14:43:02;70.03;;;34.80;;
76900;SDS011;65859;43.020;25.096;2023-11-21T14:45:49;31.83;;;17.58;;
76900;SDS011;65859;43.020;25.096;2023-11-21T14:48:34;26.23;;;15.07;;
76900;SDS011;65859;43.020;25.096;2023-11-21T14:51:26;36.20;;;19.80;;
76900;SDS011;65859;43.020;25.096;2023-11-21T14:54:30;39.42;;;21.77;;
76900;SDS011;65859;43.020;25.096;2023-11-21T14:57:28;33.25;;;18.60;;
76900;SDS011;65859;43.020;25.096;2023-11-21T15:00:13;38.47;;;18.58;;
76900;SDS011;65859;43.020;25.096;2023-11-21T15:03:19;68.60;;;33.67;;
76900;SDS011;65859;43.020;25.096;2023-11-21T15:06:16;86.35;;;37.42;;
76900;SDS011;65859;43.020;25.096;2023-11-21T15:09:11;60.15;;;29.13;;
76900;SDS011;65859;43.020;25.096;2023-11-21T15:11:56;56.70;;;24.15;;
76900;SDS011;65859;43.020;25.096;2023-11-21T15:14:48;76.32;;;33.38;;
76900;SDS011;65859;43.020;25.096;2023-11-21T15:17:37;70.82;;;31.65;;
76900;SDS011;65859;43.020;25.096;2023-11-21T15:20:26;79.05;;;33.22;;
76900;SDS011;65859;43.020;25.096;2023-11-21T15:23:11;61.88;;;38.03;;
76900;SDS011;65859;43.020;25.096;2023-11-21T15:26:00;50.65;;;30.48;;
76900;SDS011;65859;43.020;25.096;2023-11-21T15:28:47;81.82;;;42.83;;
76900;SDS011;65859;43.020;25.096;2023-11-21T15:31:32;81.82;;;49.72;;
76900;SDS011;65859;43.020;25.096;2023-11-21T15:34:17;94.85;;;58.08;;
76900;SDS011;65859;43.020;25.096;2023-11-21T15:37:02;108.32;;;59.67;;
76900;SDS011;65859;43.020;25.096;2023-11-21T15:39:49;183.13;;;116.50;;
76900;SDS011;65859;43.020;25.096;2023-11-21T15:42:34;145.23;;;87.03;;
76900;SDS011;65859;43.020;25.096;2023-11-21T15:45:20;123.32;;;68.47;;
76900;SDS011;65859;43.020;25.096;2023-11-21T15:48:08;110.38;;;62.28;;
76900;SDS011;65859;43.020;25.096;2023-11-21T15:50:54;117.85;;;69.97;;
76900;SDS011;65859;43.020;25.096;2023-11-21T15:53:41;139.07;;;90.85;;
76900;SDS011;65859;43.020;25.096;2023-11-21T15:56:26;114.22;;;67.97;;
76900;SDS011;65859;43.020;25.096;2023-11-21T15:59:11;110.03;;;72.25;;
76900;SDS011;65859;43.020;25.096;2023-11-21T16:01:57;136.63;;;97.55;;
76900;SDS011;65859;43.020;25.096;2023-11-21T16:04:43;105.50;;;76.07;;
76900;SDS011;65859;43.020;25.096;2023-11-21T16:07:27;107.90;;;71.97;;
76900;SDS011;65859;43.020;25.096;2023-11-21T16:10:14;87.70;;;56.25;;
76900;SDS011;65859;43.020;25.096;2023-11-21T16:12:59;88.65;;;51.88;;
76900;SDS011;65859;43.020;25.096;2023-11-21T16:15:44;70.80;;;39.80;;
76900;SDS011;65859;43.020;25.096;2023-11-21T16:18:29;48.42;;;29.40;;
76900;SDS011;65859;43.020;25.096;2023-11-21T16:21:13;50.20;;;30.10;;